SPHXD EPKK-EPKK
Flight info
| Callsign | SPHXD |
|---|---|
| Flight time | 0h 32m |
| Altitude | 2000 |
| Route | EPKK EPPKZ EPKKK EPKK |
| Aircraft | EC35/L-S/1000 |
Departure
| Time | 2026-04-30 17:41 |
|---|---|
| Airport | Kraków John Paul II International Airport (EPKK) |
Arrival
| Time | 2026-04-30 18:14 |
|---|---|
| Airport | Kraków John Paul II International Airport (EPKK) |
| Time | Latitude | Longitude | Altitude | Speed | Heading |
|---|---|---|---|---|---|
| 2026-04-30 17:39 | 50.11310 | 19.79537 | 1723 ft | 85 kts | 295° |
| 2026-04-30 17:41 | 50.09817 | 19.75723 | 1720 ft | 83 kts | 75° |
| 2026-04-30 17:42 | 50.10040 | 19.77506 | 1717 ft | 87 kts | 81° |
| 2026-04-30 17:42 | 50.09963 | 19.80447 | 1698 ft | 101 kts | 97° |
| 2026-04-30 17:43 | 50.08696 | 19.81514 | 1276 ft | 114 kts | 175° |
| 2026-04-30 17:44 | 50.07820 | 19.78807 | 838 ft | 96 kts | 261° |
| 2026-04-30 17:44 | 50.07908 | 19.76277 | 1048 ft | 76 kts | 342° |
| 2026-04-30 17:46 | 50.09624 | 19.77824 | 1386 ft | 82 kts | 85° |
| 2026-04-30 17:47 | 50.09177 | 19.81030 | 1374 ft | 88 kts | 163° |
| 2026-04-30 17:48 | 50.07818 | 19.78803 | 849 ft | 99 kts | 261° |
| 2026-04-30 17:48 | 50.07504 | 19.75733 | 1037 ft | 84 kts | 302° |
| 2026-04-30 17:49 | 50.09680 | 19.75652 | 1375 ft | 94 kts | 65° |
| 2026-04-30 17:50 | 50.09885 | 19.79268 | 1382 ft | 71 kts | 75° |
| 2026-04-30 17:51 | 50.10688 | 19.80296 | 1379 ft | 73 kts | 302° |
| 2026-04-30 17:52 | 50.10650 | 19.77875 | 1382 ft | 76 kts | 264° |
| 2026-04-30 17:53 | 50.09799 | 19.77885 | 1384 ft | 75 kts | 85° |
| 2026-04-30 17:54 | 50.10303 | 19.80352 | 1378 ft | 71 kts | 328° |
| 2026-04-30 17:55 | 50.10366 | 19.77225 | 1381 ft | 74 kts | 265° |
| 2026-04-30 17:56 | 50.09722 | 19.77055 | 1379 ft | 71 kts | 66° |
| 2026-04-30 17:57 | 50.10016 | 19.79364 | 1383 ft | 73 kts | 81° |
| 2026-04-30 17:58 | 50.09557 | 19.81578 | 1367 ft | 100 kts | 150° |
| 2026-04-30 17:59 | 50.07807 | 19.78698 | 844 ft | 101 kts | 256° |
| 2026-04-30 18:00 | 50.06407 | 19.76022 | 1202 ft | 90 kts | 178° |
| 2026-04-30 18:00 | 50.04729 | 19.76493 | 1226 ft | 81 kts | 162° |
| 2026-04-30 18:01 | 50.04299 | 19.77798 | 1225 ft | 73 kts | 71° |
| 2026-04-30 18:02 | 50.04583 | 19.80095 | 1224 ft | 70 kts | 73° |
| 2026-04-30 18:02 | 50.04855 | 19.82396 | 1222 ft | 74 kts | 73° |
| 2026-04-30 18:03 | 50.05766 | 19.81713 | 1222 ft | 75 kts | 267° |
| 2026-04-30 18:04 | 50.05352 | 19.79362 | 1219 ft | 76 kts | 254° |
| 2026-04-30 18:05 | 50.04087 | 19.76889 | 1219 ft | 82 kts | 165° |
| 2026-04-30 18:06 | 50.04140 | 19.79722 | 1220 ft | 72 kts | 70° |
| 2026-04-30 18:07 | 50.04832 | 19.82595 | 1217 ft | 71 kts | 45° |
| 2026-04-30 18:08 | 50.05936 | 19.81855 | 1222 ft | 76 kts | 259° |
| 2026-04-30 18:09 | 50.05224 | 19.78757 | 1220 ft | 78 kts | 254° |
| 2026-04-30 18:10 | 50.04063 | 19.77832 | 1221 ft | 74 kts | 78° |
| 2026-04-30 18:11 | 50.04619 | 19.80803 | 1220 ft | 73 kts | 74° |
| 2026-04-30 18:11 | 50.05143 | 19.82876 | 1220 ft | 71 kts | 11° |
| 2026-04-30 18:12 | 50.06516 | 19.82205 | 1220 ft | 68 kts | 342° |
| 2026-04-30 18:13 | 50.07415 | 19.81722 | 1272 ft | 68 kts | 343° |
| 2026-04-30 18:13 | 50.08044 | 19.80403 | 853 ft | 59 kts | 263° |
| 2026-04-30 18:14 | 50.07883 | 19.79247 | 804 ft | 31 kts | 262° |
| 2026-04-30 18:15 | 50.07578 | 19.79156 | 793 ft | 11 kts | 179° |
| 2026-04-30 18:15 | 50.07623 | 19.79303 | 807 ft | 23 kts | 62° |
| 2026-04-30 18:16 | 50.07602 | 19.79714 | 803 ft | 21 kts | 171° |
| 2026-04-30 18:16 | 50.07448 | 19.79738 | 797 ft | 4 kts | 275° |
| 2026-04-30 18:17 | 50.07454 | 19.79695 | 801 ft | 4 kts | 255° |
| 2026-04-30 18:17 | 50.07444 | 19.79671 | 793 ft | 4 kts | 95° |
| 2026-04-30 18:17 | 50.07452 | 19.79703 | 787 ft | 0 kts | 82° |
| 2026-04-30 18:18 | 50.07452 | 19.79702 | 787 ft | 0 kts | 77° |
| 2026-04-30 18:45 | 50.07687 | 19.79742 | 794 ft | 15 kts | 61° |
| 2026-04-30 18:45 | 50.07722 | 19.79949 | 797 ft | 22 kts | 75° |
| 2026-04-30 18:45 | 50.07755 | 19.80185 | 799 ft | 22 kts | 75° |
| 2026-04-30 18:46 | 50.07823 | 19.80337 | 792 ft | 22 kts | 11° |
| 2026-04-30 18:46 | 50.07998 | 19.80250 | 807 ft | 31 kts | 306° |
| 2026-04-30 18:46 | 50.07944 | 19.79732 | 825 ft | 68 kts | 258° |
| 2026-04-30 18:46 | 50.07824 | 19.78884 | 874 ft | 84 kts | 258° |
| 2026-04-30 18:47 | 50.07701 | 19.77984 | 923 ft | 86 kts | 260° |
| 2026-04-30 18:47 | 50.07579 | 19.77063 | 952 ft | 87 kts | 261° |
| 2026-04-30 18:47 | 50.07752 | 19.76277 | 1049 ft | 75 kts | 326° |
| 2026-04-30 18:47 | 50.08233 | 19.76094 | 1186 ft | 71 kts | 354° |
| 2026-04-30 18:48 | 50.08726 | 19.76033 | 1280 ft | 73 kts | 358° |
| 2026-04-30 18:48 | 50.09055 | 19.76600 | 1311 ft | 84 kts | 83° |
| 2026-04-30 18:48 | 50.09103 | 19.77498 | 1380 ft | 82 kts | 78° |
| 2026-04-30 18:48 | 50.09194 | 19.78378 | 1477 ft | 82 kts | 78° |
| 2026-04-30 18:49 | 50.09249 | 19.79263 | 1492 ft | 82 kts | 82° |
| 2026-04-30 18:49 | 50.09313 | 19.80131 | 1481 ft | 79 kts | 72° |
| 2026-04-30 18:49 | 50.09651 | 19.80750 | 1444 ft | 76 kts | 23° |
| 2026-04-30 18:49 | 50.10167 | 19.80873 | 1421 ft | 75 kts | 1° |
| 2026-04-30 18:50 | 50.10682 | 19.80864 | 1406 ft | 74 kts | 356° |
| 2026-04-30 18:50 | 50.11198 | 19.80773 | 1418 ft | 76 kts | 350° |
| 2026-04-30 18:50 | 50.11617 | 19.80325 | 1421 ft | 77 kts | 298° |
| 2026-04-30 18:50 | 50.11671 | 19.79490 | 1417 ft | 79 kts | 272° |
| 2026-04-30 18:51 | 50.11648 | 19.78636 | 1421 ft | 79 kts | 270° |
| 2026-04-30 18:51 | 50.11610 | 19.77782 | 1421 ft | 79 kts | 268° |
| 2026-04-30 18:51 | 50.11556 | 19.76926 | 1419 ft | 79 kts | 268° |
| 2026-04-30 18:51 | 50.11487 | 19.76075 | 1419 ft | 79 kts | 265° |
| 2026-04-30 18:52 | 50.11401 | 19.75227 | 1421 ft | 79 kts | 264° |
| 2026-04-30 18:52 | 50.11222 | 19.74422 | 1414 ft | 85 kts | 223° |
| 2026-04-30 18:52 | 50.10657 | 19.74386 | 1422 ft | 84 kts | 165° |
| 2026-04-30 18:52 | 50.10077 | 19.74589 | 1420 ft | 84 kts | 167° |
| 2026-04-30 18:53 | 50.09516 | 19.74814 | 1417 ft | 85 kts | 149° |
| 2026-04-30 18:53 | 50.09278 | 19.75566 | 1421 ft | 79 kts | 86° |
| 2026-04-30 18:53 | 50.09338 | 19.76418 | 1424 ft | 79 kts | 77° |
| 2026-04-30 18:53 | 50.09421 | 19.77260 | 1421 ft | 79 kts | 80° |
| 2026-04-30 18:54 | 50.09443 | 19.78124 | 1420 ft | 81 kts | 86° |
| 2026-04-30 18:54 | 50.09429 | 19.78994 | 1421 ft | 79 kts | 85° |
| 2026-04-30 18:54 | 50.09472 | 19.79848 | 1420 ft | 79 kts | 80° |
| 2026-04-30 18:54 | 50.09549 | 19.80696 | 1420 ft | 79 kts | 78° |
| 2026-04-30 18:55 | 50.09832 | 19.81376 | 1421 ft | 76 kts | 27° |
| 2026-04-30 18:55 | 50.10852 | 19.81722 | 1420 ft | 74 kts | 4° |
| 2026-04-30 18:55 | 50.11332 | 19.81478 | 1419 ft | 76 kts | 320° |
| 2026-04-30 18:56 | 50.11590 | 19.79874 | 1418 ft | 78 kts | 278° |
| 2026-04-30 18:56 | 50.11633 | 19.79027 | 1422 ft | 78 kts | 277° |
| 2026-04-30 18:56 | 50.11654 | 19.78180 | 1419 ft | 79 kts | 275° |
| 2026-04-30 18:57 | 50.11530 | 19.76487 | 1421 ft | 80 kts | 261° |
| 2026-04-30 18:57 | 50.11414 | 19.75644 | 1420 ft | 79 kts | 263° |
| 2026-04-30 18:57 | 50.11328 | 19.74802 | 1419 ft | 79 kts | 267° |
| 2026-04-30 18:58 | 50.10544 | 19.73849 | 1418 ft | 84 kts | 165° |
| 2026-04-30 18:58 | 50.09980 | 19.74109 | 1420 ft | 85 kts | 160° |
| 2026-04-30 18:58 | 50.09437 | 19.74449 | 1418 ft | 84 kts | 140° |
| 2026-04-30 18:59 | 50.09300 | 19.76063 | 1422 ft | 79 kts | 73° |
| 2026-04-30 19:00 | 50.09593 | 19.78563 | 1418 ft | 78 kts | 49° |
| 2026-04-30 19:00 | 50.10055 | 19.78550 | 1421 ft | 76 kts | 311° |
| 2026-04-30 19:00 | 50.09426 | 19.78017 | 1418 ft | 85 kts | 118° |
| 2026-04-30 19:01 | 50.09971 | 19.78404 | 1421 ft | 78 kts | 285° |
| 2026-04-30 19:01 | 50.09655 | 19.77778 | 1418 ft | 86 kts | 189° |
| 2026-04-30 19:02 | 50.09553 | 19.78890 | 1424 ft | 75 kts | 19° |
| 2026-04-30 19:02 | 50.09781 | 19.79863 | 1417 ft | 87 kts | 184° |
| 2026-04-30 19:03 | 50.09954 | 19.79621 | 1425 ft | 81 kts | 95° |
| 2026-04-30 19:03 | 50.09689 | 19.81016 | 1424 ft | 82 kts | 111° |
| 2026-04-30 19:04 | 50.08702 | 19.81660 | 1301 ft | 83 kts | 181° |
| 2026-04-30 19:04 | 50.08069 | 19.80592 | 946 ft | 75 kts | 263° |
| 2026-04-30 19:05 | 50.07820 | 19.78836 | 852 ft | 90 kts | 260° |
| 2026-04-30 19:05 | 50.07561 | 19.76883 | 905 ft | 89 kts | 262° |
| 2026-04-30 19:06 | 50.08084 | 19.75699 | 1124 ft | 72 kts | 349° |
| 2026-04-30 19:06 | 50.08560 | 19.75559 | 1268 ft | 68 kts | 353° |
| 2026-04-30 19:06 | 50.09469 | 19.75983 | 1277 ft | 79 kts | 65° |
| 2026-04-30 19:07 | 50.09519 | 19.77703 | 1272 ft | 80 kts | 81° |
| 2026-04-30 19:07 | 50.09580 | 19.78547 | 1271 ft | 79 kts | 80° |
| 2026-04-30 19:08 | 50.09695 | 19.80248 | 1269 ft | 79 kts | 82° |
| 2026-04-30 19:08 | 50.09195 | 19.81607 | 1272 ft | 84 kts | 160° |
| 2026-04-30 19:08 | 50.08623 | 19.81695 | 1250 ft | 82 kts | 188° |
| 2026-04-30 19:09 | 50.08057 | 19.80447 | 998 ft | 75 kts | 263° |
| 2026-04-30 19:09 | 50.07937 | 19.79633 | 850 ft | 78 kts | 261° |
| 2026-04-30 19:09 | 50.07821 | 19.78790 | 827 ft | 80 kts | 260° |
| 2026-04-30 19:10 | 50.07597 | 19.77180 | 874 ft | 74 kts | 262° |
| 2026-04-30 19:10 | 50.07884 | 19.75968 | 1043 ft | 74 kts | 359° |
| 2026-04-30 19:11 | 50.08389 | 19.75929 | 1204 ft | 72 kts | 358° |
| 2026-04-30 19:11 | 50.09282 | 19.76362 | 1209 ft | 80 kts | 77° |
| 2026-04-30 19:11 | 50.09348 | 19.77213 | 1207 ft | 79 kts | 79° |
| 2026-04-30 19:12 | 50.09416 | 19.78067 | 1202 ft | 80 kts | 80° |
| 2026-04-30 19:12 | 50.09478 | 19.78919 | 1201 ft | 79 kts | 80° |
| 2026-04-30 19:12 | 50.09537 | 19.79769 | 1200 ft | 79 kts | 81° |
| 2026-04-30 19:13 | 50.09073 | 19.81131 | 1228 ft | 83 kts | 161° |
| 2026-04-30 19:13 | 50.08110 | 19.80883 | 981 ft | 73 kts | 251° |
| 2026-04-30 19:13 | 50.08016 | 19.80211 | 887 ft | 55 kts | 260° |
| 2026-04-30 19:14 | 50.07948 | 19.79694 | 835 ft | 44 kts | 262° |
| 2026-04-30 19:14 | 50.07890 | 19.79286 | 807 ft | 30 kts | 263° |
| 2026-04-30 19:14 | 50.07828 | 19.79085 | 792 ft | 15 kts | 206° |
| 2026-04-30 19:14 | 50.07747 | 19.79088 | 790 ft | 16 kts | 167° |
| 2026-04-30 19:15 | 50.07675 | 19.79116 | 786 ft | 0 kts | 168° |
| 2026-04-30 19:15 | 50.07635 | 19.79128 | 792 ft | 12 kts | 160° |
| 2026-04-30 19:16 | 50.07623 | 19.79257 | 800 ft | 20 kts | 75° |
| 2026-04-30 19:16 | 50.07663 | 19.79520 | 807 ft | 26 kts | 71° |
| 2026-04-30 19:16 | 50.07498 | 19.79753 | 796 ft | 14 kts | 180° |
| 2026-04-30 19:17 | 50.07440 | 19.79727 | 797 ft | 6 kts | 257° |
| 2026-04-30 19:17 | 50.07452 | 19.79704 | 786 ft | 0 kts | 80° |
| 2026-04-30 19:17 | 50.07452 | 19.79703 | 786 ft | 0 kts | 78° |